Nrp Polar — CTEJ — position and weather

sailwx.info

Track history (hours):
 
Tides and Currents Weather Stations Pressure Air Temp Water Temp Dewpoint Dewpoint Depression Visibility Wind Speed Wind Dir Waves Ship Positions

Nrp Polar

Last reported at 2014-Aug-08 11:33 UTC. Time now 2014-Sep-03 00:03 UTC.
Position N 38°40' W 009°09'.
Warning: this ship's position is 25 days out of date.

; draft 3 m.

Type: Sailing vessel. MMSI: 263142000.

Date/timePositionNaut miles runAvg speedWind from/ knotsBaromVisibWave heightAir tempDewpointWater temp
2014-Aug-08 11:33N 38°40' W 009°09'2 2.2
2014-Aug-08 10:33N 38°41' W 009°12'17 5.0
2014-Aug-08 07:06N 38°25' W 009°05'10 0.2
2014-Aug-06 13:14N 38°30' W 008°54'2 2.8
2014-Aug-06 12:33N 38°29' W 008°52'4 3.8
2014-Aug-06 11:28N 38°28' W 008°57'7 7.2
2014-Aug-06 10:33N 38°21' W 008°58'8 8.1
2014-Aug-06 09:33N 38°13' W 008°57'  
2014-Aug-01 09:21N 36°60' W 008°06'3 3.8
2014-Aug-01 08:33N 36°57' W 008°05'2 1.6
2014-Aug-01 07:33N 36°56' W 008°03'5 4.6
2014-Aug-01 06:33N 36°52' W 008°00'8 3.8
2014-Aug-01 04:32N 36°54' W 008°10'4 4.5
2014-Aug-01 03:33N 36°56' W 008°14'5 4.6
2014-Aug-01 02:33N 36°57' W 008°20'5 5.3
2014-Aug-01 01:33N 36°57' W 008°26'5 5.2
2014-Aug-01 00:33N 36°56' W 008°33'5 5.2
2014-Jul-31 23:33N 36°56' W 008°39'5 5.0
2014-Jul-31 22:33N 36°54' W 008°45'9 4.2
2014-Jul-31 20:23N 36°58' W 008°56'6 0.9
2014-Jul-31 13:12N 37°00' W 008°49'1 0.8
2014-Jul-31 12:33N 37°00' W 008°48'3 2.5
2014-Jul-31 11:12N 37°01' W 008°44'2 2.8
2014-Jul-31 10:33N 37°01' W 008°42'3 2.8
2014-Jul-31 09:33N 37°02' W 008°38'4 3.6
2014-Jul-31 08:30N 37°04' W 008°34'4 4.2
2014-Jul-31 07:33N 37°07' W 008°32'1 0.0
2014-Jul-30 14:33N 37°06' W 008°32'4 3.6
2014-Jul-30 13:33N 37°03' W 008°30'1 0.8
2014-Jul-30 12:33N 37°03' W 008°31'5 4.7
2014-Jul-30 11:33N 37°03' W 008°37'1 1.5
2014-Jul-30 10:33N 37°03' W 008°38'2 2.1
2014-Jul-30 09:33N 37°05' W 008°37'3 3.1
2014-Jul-30 08:34N 37°06' W 008°33'2 1.7
2014-Jul-30 07:29N 37°07' W 008°32'0 0.0
2014-Jul-29 20:25N 37°07' W 008°32'0 0.0
2014-Jul-29 19:34N 37°07' W 008°32'0 0.0
2014-Jul-29 18:33N 37°07' W 008°32'0 0.0
2014-Jul-29 17:34N 37°07' W 008°32'0 0.0
2014-Jul-29 16:34N 37°07' W 008°32'0 0.0
2014-Jul-29 15:33N 37°07' W 008°32'0 0.0
2014-Jul-29 14:33N 37°07' W 008°32'0 0.0
2014-Jul-29 13:33N 37°07' W 008°32'0 0.0
2014-Jul-29 12:33N 37°07' W 008°32'  
Track history (hours):
 
Tides and Currents Weather Stations Pressure Air Temp Water Temp Dewpoint Dewpoint Depression Visibility Wind Speed Wind Dir Waves Ship Positions

Nrp Polar

Last reported at 2014-Aug-08 11:33 UTC. Time now 2014-Sep-03 00:03 UTC.
Position N 38°40' W 009°09'.
Warning: this ship's position is 25 days out of date.

; draft 3 m.

Type: Sailing vessel. MMSI: 263142000.

Date/timePositionNaut miles runAvg speedWind from/ knotsBaromVisibWave heightAir tempDewpointWater temp
2014-Aug-08 11:33N 38°40' W 009°09'2 2.2
2014-Aug-08 10:33N 38°41' W 009°12'17 5.0
2014-Aug-08 07:06N 38°25' W 009°05'10 0.2
2014-Aug-06 13:14N 38°30' W 008°54'2 2.8
2014-Aug-06 12:33N 38°29' W 008°52'4 3.8
2014-Aug-06 11:28N 38°28' W 008°57'7 7.2
2014-Aug-06 10:33N 38°21' W 008°58'8 8.1
2014-Aug-06 09:33N 38°13' W 008°57'  
2014-Aug-01 09:21N 36°60' W 008°06'3 3.8
2014-Aug-01 08:33N 36°57' W 008°05'2 1.6
2014-Aug-01 07:33N 36°56' W 008°03'5 4.6
2014-Aug-01 06:33N 36°52' W 008°00'8 3.8
2014-Aug-01 04:32N 36°54' W 008°10'4 4.5
2014-Aug-01 03:33N 36°56' W 008°14'5 4.6
2014-Aug-01 02:33N 36°57' W 008°20'5 5.3
2014-Aug-01 01:33N 36°57' W 008°26'5 5.2
2014-Aug-01 00:33N 36°56' W 008°33'5 5.2
2014-Jul-31 23:33N 36°56' W 008°39'5 5.0
2014-Jul-31 22:33N 36°54' W 008°45'9 4.2
2014-Jul-31 20:23N 36°58' W 008°56'6 0.9
2014-Jul-31 13:12N 37°00' W 008°49'1 0.8
2014-Jul-31 12:33N 37°00' W 008°48'3 2.5
2014-Jul-31 11:12N 37°01' W 008°44'2 2.8
2014-Jul-31 10:33N 37°01' W 008°42'3 2.8
2014-Jul-31 09:33N 37°02' W 008°38'4 3.6
2014-Jul-31 08:30N 37°04' W 008°34'4 4.2
2014-Jul-31 07:33N 37°07' W 008°32'1 0.0
2014-Jul-30 14:33N 37°06' W 008°32'4 3.6
2014-Jul-30 13:33N 37°03' W 008°30'1 0.8
2014-Jul-30 12:33N 37°03' W 008°31'5 4.7
2014-Jul-30 11:33N 37°03' W 008°37'1 1.5
2014-Jul-30 10:33N 37°03' W 008°38'2 2.1
2014-Jul-30 09:33N 37°05' W 008°37'3 3.1
2014-Jul-30 08:34N 37°06' W 008°33'2 1.7
2014-Jul-30 07:29N 37°07' W 008°32'0 0.0
2014-Jul-29 20:25N 37°07' W 008°32'0 0.0
2014-Jul-29 19:34N 37°07' W 008°32'0 0.0
2014-Jul-29 18:33N 37°07' W 008°32'0 0.0
2014-Jul-29 17:34N 37°07' W 008°32'0 0.0
2014-Jul-29 16:34N 37°07' W 008°32'0 0.0
2014-Jul-29 15:33N 37°07' W 008°32'0 0.0
2014-Jul-29 14:33N 37°07' W 008°32'0 0.0
2014-Jul-29 13:33N 37°07' W 008°32'0 0.0
2014-Jul-29 12:33N 37°07' W 008°32'  

Dump ship's entire track history